createdAt,value
2018-09-30T00:03:23.751Z,63.36
2018-09-30T00:08:28.038Z,64.13
2018-09-30T00:13:32.224Z,64.06
2018-09-30T00:18:36.534Z,63.80
2018-09-30T00:23:46.088Z,64.15
2018-09-30T00:28:50.488Z,63.90
2018-09-30T00:33:59.982Z,64.12
2018-09-30T00:39:05.344Z,64.02
2018-09-30T00:44:09.678Z,63.85
2018-09-30T00:49:14.428Z,64.19
2018-09-30T00:54:18.858Z,64.78
2018-09-30T00:59:23.195Z,65.07
2018-09-30T01:04:28.318Z,65.58
2018-09-30T01:09:32.519Z,65.50
2018-09-30T01:14:36.862Z,65.92
2018-09-30T01:19:41.138Z,66.33
2018-09-30T01:24:45.391Z,66.09
2018-09-30T01:29:49.646Z,66.60
2018-09-30T01:34:53.920Z,67.07
2018-09-30T01:39:58.200Z,67.04
2018-09-30T01:45:02.434Z,67.38
2018-09-30T01:50:06.648Z,67.44
2018-09-30T01:55:11.112Z,67.61
2018-09-30T02:00:16.098Z,67.56
2018-09-30T02:05:20.806Z,67.79
2018-09-30T02:10:25.018Z,67.95
2018-09-30T02:15:29.188Z,67.92
2018-09-30T02:20:33.538Z,67.81
2018-09-30T02:25:37.820Z,67.79
2018-09-30T02:30:42.098Z,68.09
2018-09-30T02:35:46.296Z,68.55
2018-09-30T02:40:50.734Z,68.85
2018-09-30T02:45:55.082Z,69.26
2018-09-30T02:50:59.673Z,69.54
2018-09-30T02:56:03.890Z,69.46
2018-09-30T03:01:08.279Z,69.87
2018-09-30T03:06:16.650Z,70.12
2018-09-30T03:11:20.936Z,69.84
2018-09-30T03:16:25.238Z,70.16
2018-09-30T03:21:29.521Z,70.61
2018-09-30T03:26:34.025Z,70.98
2018-09-30T03:31:38.387Z,70.75
2018-09-30T03:36:42.829Z,70.54
2018-09-30T03:41:47.257Z,71.20
2018-09-30T03:46:51.491Z,70.89
2018-09-30T03:51:55.839Z,70.83
2018-09-30T03:57:00.238Z,70.55
2018-09-30T04:02:04.527Z,70.97
2018-09-30T04:07:08.959Z,71.00
2018-09-30T04:12:13.378Z,70.74
2018-09-30T04:17:17.668Z,71.05
2018-09-30T04:22:21.838Z,71.00
2018-09-30T04:27:26.102Z,70.69
2018-09-30T04:32:30.437Z,70.59
2018-09-30T04:37:34.819Z,70.37
2018-09-30T04:42:39.075Z,71.05
2018-09-30T04:47:43.383Z,70.19
2018-09-30T04:52:47.721Z,69.93
2018-09-30T04:57:51.975Z,70.36
2018-09-30T05:02:56.337Z,70.68
2018-09-30T05:08:00.609Z,70.10
2018-09-30T05:13:04.900Z,69.51
2018-09-30T05:18:09.317Z,69.25
2018-09-30T05:23:13.575Z,69.28
2018-09-30T05:28:17.773Z,69.46
2018-09-30T05:33:22.607Z,69.51
2018-09-30T05:38:26.873Z,69.44
2018-09-30T05:43:31.061Z,69.63
2018-09-30T05:48:35.847Z,69.95
2018-09-30T05:53:39.963Z,70.74
2018-09-30T05:58:45.349Z,71.15
2018-09-30T06:03:50.658Z,70.99
2018-09-30T06:08:55.059Z,71.01
2018-09-30T06:13:59.534Z,71.20
2018-09-30T06:19:03.720Z,70.89
2018-09-30T06:24:08.290Z,70.71
2018-09-30T06:29:12.491Z,70.79
2018-09-30T06:34:16.861Z,70.00
2018-09-30T06:39:21.105Z,69.50
2018-09-30T06:44:25.610Z,68.66
2018-09-30T06:49:29.937Z,68.18
2018-09-30T06:54:34.099Z,67.55
2018-09-30T06:59:38.645Z,67.66
2018-09-30T07:04:42.991Z,67.42
2018-09-30T07:09:47.591Z,66.79
2018-09-30T07:14:51.872Z,65.46
2018-09-30T07:19:56.742Z,65.58
2018-09-30T07:25:01.373Z,65.15
2018-09-30T07:30:06.051Z,64.80
2018-09-30T07:35:10.483Z,63.70
2018-09-30T07:40:14.905Z,63.07
2018-09-30T07:45:20.341Z,62.33
2018-09-30T07:50:24.771Z,61.57
2018-09-30T07:55:29.073Z,60.70
2018-09-30T08:00:33.263Z,60.17
2018-09-30T08:05:37.489Z,59.72
2018-09-30T08:10:42.127Z,58.58
2018-09-30T08:15:46.885Z,57.48
2018-09-30T08:20:51.211Z,56.17
2018-09-30T08:25:55.539Z,55.73
2018-09-30T08:30:59.839Z,54.53
2018-09-30T08:36:10.163Z,53.53
2018-09-30T08:41:14.599Z,52.61
2018-09-30T08:46:18.977Z,52.45
2018-09-30T08:51:23.205Z,50.11
2018-09-30T08:56:27.495Z,49.86
2018-09-30T09:01:31.855Z,47.26
2018-09-30T09:06:36.222Z,46.78
2018-09-30T09:11:40.424Z,45.29
2018-09-30T09:16:44.690Z,42.87
2018-09-30T09:21:48.957Z,40.63
2018-09-30T09:26:53.397Z,39.20
2018-09-30T09:31:58.827Z,34.51
2018-09-30T09:37:02.972Z,31.60
2018-09-30T09:42:07.522Z,28.33
2018-09-30T09:47:11.282Z,26.54
2018-09-30T09:52:14.747Z,23.80
2018-09-30T09:57:18.467Z,24.58
2018-09-30T10:02:22.225Z,23.93
2018-09-30T10:07:26.056Z,23.84
2018-09-30T10:12:29.669Z,24.89
2018-09-30T10:17:33.245Z,27.26
2018-09-30T10:22:36.582Z,28.78
2018-09-30T10:27:40.071Z,32.30
2018-09-30T10:32:43.421Z,33.96
2018-09-30T10:37:46.839Z,34.32
2018-09-30T10:42:50.236Z,38.49
2018-09-30T10:47:53.715Z,39.47
2018-09-30T10:52:57.997Z,40.05
2018-09-30T10:58:03.150Z,38.20
2018-09-30T11:03:07.745Z,38.73
2018-09-30T11:08:11.175Z,39.77
2018-09-30T11:13:14.674Z,38.69
2018-09-30T11:18:18.137Z,39.25
2018-09-30T11:23:21.711Z,38.59
2018-09-30T11:28:26.083Z,38.04
2018-09-30T11:33:30.472Z,35.58
2018-09-30T11:38:34.792Z,36.27
2018-09-30T11:43:39.257Z,34.63
2018-09-30T11:48:43.599Z,30.68
2018-09-30T11:53:48.709Z,28.84
2018-09-30T11:58:53.120Z,27.19
2018-09-30T12:03:57.485Z,27.23
2018-09-30T12:09:01.887Z,27.00
2018-09-30T12:14:06.165Z,26.13
2018-09-30T12:19:10.536Z,24.96
2018-09-30T12:24:14.849Z,24.96
2018-09-30T12:29:19.298Z,23.45
2018-09-30T12:34:23.633Z,26.50
2018-09-30T12:39:28.237Z,25.01
2018-09-30T12:44:32.665Z,25.10
2018-09-30T12:49:38.035Z,27.09
2018-09-30T12:54:42.553Z,24.05
2018-09-30T12:59:47.665Z,25.21
2018-09-30T13:04:51.993Z,21.55
2018-09-30T13:09:56.383Z,21.58
2018-09-30T13:15:00.890Z,21.01
2018-09-30T13:20:05.416Z,22.51
2018-09-30T13:25:10.425Z,18.43
2018-09-30T13:30:19.984Z,18.79
2018-09-30T13:35:24.524Z,19.33
2018-09-30T13:40:29.021Z,23.08
2018-09-30T13:45:33.348Z,22.91
2018-09-30T13:50:37.989Z,24.55
2018-09-30T13:55:42.506Z,26.07
2018-09-30T14:00:47.282Z,25.29
2018-09-30T14:05:51.722Z,26.04
2018-09-30T14:10:56.332Z,25.50
2018-09-30T14:16:01.010Z,27.31
2018-09-30T14:21:05.285Z,27.99
2018-09-30T14:26:09.778Z,27.43
2018-09-30T14:31:14.469Z,27.95
2018-09-30T14:36:18.931Z,29.42
2018-09-30T14:41:24.292Z,30.53
2018-09-30T14:46:28.663Z,31.65
2018-09-30T14:51:32.997Z,31.49
2018-09-30T14:56:37.432Z,30.91
2018-09-30T15:01:42.373Z,31.02
2018-09-30T15:06:46.746Z,31.57
2018-09-30T15:11:51.082Z,32.24
2018-09-30T15:16:55.452Z,32.12
2018-09-30T15:22:00.107Z,32.61
2018-09-30T15:27:04.331Z,32.57
2018-09-30T15:32:09.081Z,32.45
2018-09-30T15:37:14.190Z,33.03
2018-09-30T15:42:18.490Z,33.88
2018-09-30T15:47:23.105Z,34.20
2018-09-30T15:52:27.567Z,34.57
2018-09-30T15:57:32.111Z,34.42
2018-09-30T16:02:36.589Z,35.10
2018-09-30T16:07:41.008Z,35.45
2018-09-30T16:12:45.412Z,36.00
2018-09-30T16:17:49.841Z,36.58
2018-09-30T16:22:54.587Z,37.28
2018-09-30T16:27:59.180Z,37.35
2018-09-30T16:33:03.817Z,37.48
2018-09-30T16:38:08.447Z,36.93
2018-09-30T16:43:12.909Z,37.76
2018-09-30T16:48:17.640Z,38.18
2018-09-30T16:53:27.462Z,38.41
2018-09-30T16:58:32.326Z,38.62
2018-09-30T17:03:37.018Z,39.21
2018-09-30T17:08:41.830Z,40.08
2018-09-30T17:13:46.576Z,40.78
2018-09-30T17:18:51.123Z,41.75
2018-09-30T17:23:55.695Z,42.55
2018-09-30T17:29:00.281Z,43.55
2018-09-30T17:34:04.648Z,44.50
2018-09-30T17:39:14.098Z,44.67
2018-09-30T17:44:18.753Z,45.48
2018-09-30T17:49:24.512Z,46.04
2018-09-30T17:54:29.224Z,46.97
2018-09-30T17:59:34.004Z,48.04
2018-09-30T18:04:38.433Z,48.53
2018-09-30T18:09:42.939Z,48.94
2018-09-30T18:14:47.446Z,49.90
2018-09-30T18:19:52.217Z,50.62
2018-09-30T18:24:56.767Z,51.10
2018-09-30T18:30:00.990Z,51.59
2018-09-30T18:35:05.385Z,52.29
2018-09-30T18:40:09.781Z,52.85
2018-09-30T18:45:14.448Z,53.63
2018-09-30T18:50:18.828Z,54.48
2018-09-30T18:55:23.661Z,54.75
2018-09-30T19:00:28.159Z,54.98
2018-09-30T19:05:32.904Z,55.39
2018-09-30T19:10:37.389Z,56.08
2018-09-30T19:15:42.070Z,56.36
2018-09-30T19:20:46.749Z,56.40
2018-09-30T19:25:51.235Z,57.09
2018-09-30T19:30:55.775Z,57.65
2018-09-30T19:36:00.216Z,58.15
2018-09-30T19:41:09.571Z,58.82
2018-09-30T19:46:13.970Z,58.63
2018-09-30T19:51:18.341Z,59.21
2018-09-30T19:56:22.759Z,59.11
2018-09-30T20:01:27.256Z,60.04
2018-09-30T20:06:31.535Z,59.39
2018-09-30T20:11:36.157Z,59.51
2018-09-30T20:16:40.720Z,59.88
2018-09-30T20:21:45.226Z,60.47
2018-09-30T20:26:49.878Z,60.76
2018-09-30T20:31:54.333Z,60.84
2018-09-30T20:36:58.610Z,61.63
2018-09-30T20:42:02.995Z,61.52
2018-09-30T20:47:07.266Z,61.42
2018-09-30T20:52:11.560Z,62.27
2018-09-30T20:57:15.936Z,62.60
2018-09-30T21:02:20.240Z,62.54
2018-09-30T21:07:24.763Z,62.83
2018-09-30T21:12:29.257Z,62.78
2018-09-30T21:17:33.660Z,63.82
2018-09-30T21:22:37.926Z,63.90
2018-09-30T21:27:42.156Z,63.69
2018-09-30T21:32:46.604Z,64.07
2018-09-30T21:37:51.480Z,63.62
2018-09-30T21:42:55.812Z,63.84
2018-09-30T21:48:00.725Z,63.20
2018-09-30T21:53:05.262Z,63.45
2018-09-30T21:58:09.559Z,63.02
2018-09-30T22:03:14.613Z,64.06
2018-09-30T22:08:18.952Z,63.51
2018-09-30T22:13:23.532Z,63.38
2018-09-30T22:18:27.957Z,63.97
2018-09-30T22:23:32.380Z,64.36
2018-09-30T22:28:36.586Z,64.81
2018-09-30T22:33:40.835Z,65.09
2018-09-30T22:38:45.566Z,65.27
2018-09-30T22:43:49.796Z,64.41
2018-09-30T22:48:54.036Z,64.04
2018-09-30T22:53:58.231Z,64.11
2018-09-30T22:59:03.070Z,64.36
2018-09-30T23:04:07.344Z,65.74
2018-09-30T23:09:11.509Z,65.83
2018-09-30T23:14:15.666Z,65.40
2018-09-30T23:19:19.832Z,65.81
2018-09-30T23:24:24.078Z,66.58
2018-09-30T23:29:28.210Z,66.39
2018-09-30T23:34:32.429Z,65.73
2018-09-30T23:39:36.976Z,65.84
2018-09-30T23:44:41.239Z,65.79
2018-09-30T23:49:45.473Z,66.19
2018-09-30T23:54:49.777Z,67.05
2018-09-30T23:59:54.021Z,66.95
